createdAt,value
2019-04-10T00:00:53.005Z,58.50
2019-04-10T00:03:27.826Z,58.42
2019-04-10T00:05:52.140Z,60.12
2019-04-10T00:08:20.650Z,56.30
2019-04-10T00:10:49.096Z,62.05
2019-04-10T00:13:18.417Z,59.38
2019-04-10T00:15:47.005Z,59.93
2019-04-10T00:18:15.910Z,54.10
2019-04-10T00:20:44.916Z,53.58
2019-04-10T00:23:13.422Z,58.57
2019-04-10T00:25:41.877Z,56.10
2019-04-10T00:28:11.504Z,57.80
2019-04-10T00:30:40.965Z,58.35
2019-04-10T00:33:10.254Z,54.15
2019-04-10T00:35:39.406Z,59.77
2019-04-10T00:38:09.208Z,52.62
2019-04-10T00:40:39.424Z,54.08
2019-04-10T00:43:08.679Z,53.30
2019-04-10T00:45:37.646Z,55.63
2019-04-10T00:48:06.027Z,58.05
2019-04-10T00:50:34.805Z,61.30
2019-04-10T00:53:03.830Z,57.05
2019-04-10T00:55:32.836Z,55.85
2019-04-10T00:58:02.268Z,57.57
2019-04-10T01:00:30.876Z,56.00
2019-04-10T01:02:59.402Z,61.53
2019-04-10T01:05:27.729Z,53.10
2019-04-10T01:07:56.381Z,54.55
2019-04-10T01:10:24.992Z,51.83
2019-04-10T01:12:54.218Z,54.03
2019-04-10T01:15:23.238Z,55.70
2019-04-10T01:17:52.761Z,54.90
2019-04-10T01:20:21.703Z,54.60
2019-04-10T01:22:50.504Z,57.75
2019-04-10T01:25:19.093Z,51.90
2019-04-10T01:27:48.060Z,49.55
2019-04-10T01:30:16.516Z,49.53
2019-04-10T01:32:45.224Z,50.20
2019-04-10T01:35:13.976Z,48.75
2019-04-10T01:37:51.263Z,50.88
2019-04-10T01:40:14.958Z,46.92
2019-04-10T01:42:44.494Z,47.95
2019-04-10T01:45:14.108Z,52.13
2019-04-10T01:47:43.291Z,51.42
2019-04-10T01:50:12.460Z,49.67
2019-04-10T01:52:41.460Z,55.60
2019-04-10T01:55:22.315Z,52.98
2019-04-10T02:00:11.083Z,48.78
2019-04-10T02:02:51.809Z,51.08
2019-04-10T02:05:20.708Z,53.58
2019-04-10T02:08:01.166Z,48.23
2019-04-10T02:10:20.420Z,50.95
2019-04-10T02:12:49.347Z,44.73
2019-04-10T02:15:17.918Z,46.00
2019-04-10T02:17:46.633Z,46.60
2019-04-10T02:20:15.037Z,48.92
2019-04-10T02:22:43.725Z,49.13
2019-04-10T02:25:12.066Z,49.25
2019-04-10T02:27:40.803Z,49.48
2019-04-10T02:30:12.044Z,50.58
2019-04-10T02:32:43.601Z,46.92
2019-04-10T02:35:13.154Z,45.73
2019-04-10T02:37:41.678Z,52.27
2019-04-10T02:40:10.951Z,41.33
2019-04-10T02:42:41.095Z,42.27
2019-04-10T02:45:12.310Z,43.42
2019-04-10T02:47:41.333Z,46.60
2019-04-10T02:50:11.913Z,44.30
2019-04-10T02:52:43.008Z,46.75
2019-04-10T02:55:11.907Z,45.63
2019-04-10T02:57:41.521Z,46.15
2019-04-10T03:00:12.747Z,46.73
2019-04-10T03:02:41.684Z,49.77
2019-04-10T03:05:10.985Z,48.35
2019-04-10T03:07:40.401Z,44.47
2019-04-10T03:10:23.294Z,44.48
2019-04-10T03:12:40.982Z,44.75
2019-04-10T03:15:12.231Z,47.43
2019-04-10T03:17:40.530Z,49.45
2019-04-10T03:20:09.885Z,47.98
2019-04-10T03:22:38.869Z,51.90
2019-04-10T03:25:08.714Z,54.25
2019-04-10T03:30:10.432Z,51.15
2019-04-10T03:32:50.250Z,44.35
2019-04-10T03:35:21.197Z,51.73
2019-04-10T03:37:50.749Z,49.27
2019-04-10T03:40:19.554Z,49.60
2019-04-10T03:42:49.606Z,51.13
2019-04-10T03:47:45.871Z,53.38
2019-04-10T03:50:14.384Z,56.55
2019-04-10T03:52:43.309Z,50.65
2019-04-10T03:55:12.525Z,54.23
2019-04-10T03:57:41.259Z,52.43
2019-04-10T04:00:09.935Z,50.43
2019-04-10T04:02:38.268Z,50.40
2019-04-10T04:05:06.679Z,53.20
2019-04-10T04:07:35.312Z,48.42
2019-04-10T04:10:06.139Z,58.02
2019-04-10T04:12:35.058Z,53.17
2019-04-10T04:15:03.951Z,48.68
2019-04-10T04:17:32.741Z,52.50
2019-04-10T04:20:02.516Z,49.85
2019-04-10T04:25:00.271Z,57.35
2019-04-10T04:27:29.250Z,57.50
2019-04-10T04:29:57.714Z,57.43
2019-04-10T04:32:25.988Z,57.98
2019-04-10T04:34:54.751Z,55.83
2019-04-10T04:37:23.120Z,51.37
2019-04-10T04:39:52.159Z,52.73
2019-04-10T04:42:20.675Z,58.73
2019-04-10T04:44:48.949Z,51.33
2019-04-10T04:47:18.193Z,51.10
2019-04-10T04:49:46.789Z,52.73
2019-04-10T04:52:16.176Z,56.02
2019-04-10T04:54:45.545Z,53.20
2019-04-10T04:57:14.892Z,52.90
2019-04-10T04:59:43.438Z,55.33
2019-04-10T05:02:12.226Z,55.28
2019-04-10T05:04:41.633Z,55.78
2019-04-10T05:07:10.427Z,55.65
2019-04-10T05:09:40.425Z,52.20
2019-04-10T05:12:09.323Z,65.85
2019-04-10T05:14:37.858Z,56.15
2019-04-10T05:17:06.406Z,52.58
2019-04-10T05:19:36.097Z,56.77
2019-04-10T05:22:05.904Z,60.08
2019-04-10T05:24:34.888Z,54.23
2019-04-10T05:27:03.576Z,49.70
2019-04-10T05:29:32.434Z,53.52
2019-04-10T05:32:01.078Z,58.68
2019-04-10T05:34:29.649Z,55.98
2019-04-10T05:36:58.837Z,55.92
2019-04-10T05:39:39.155Z,51.00
2019-04-10T05:44:25.630Z,53.63
2019-04-10T05:46:54.871Z,46.98
2019-04-10T05:49:24.585Z,49.15
2019-04-10T05:51:53.514Z,52.70
2019-04-10T05:54:22.571Z,55.92
2019-04-10T05:56:51.194Z,53.67
2019-04-10T05:59:19.678Z,55.80
2019-04-10T06:01:48.536Z,64.15
2019-04-10T06:04:17.183Z,51.50
2019-04-10T06:07:23.202Z,55.28
2019-04-10T06:09:55.836Z,52.08
2019-04-10T06:12:22.334Z,53.08
2019-04-10T06:14:50.743Z,50.43
2019-04-10T06:17:20.455Z,52.10
2019-04-10T06:19:49.273Z,51.20
2019-04-10T06:22:18.873Z,56.75
2019-04-10T06:24:47.461Z,58.75
2019-04-10T06:27:16.407Z,71.60
2019-04-10T06:29:46.274Z,63.03
2019-04-10T06:32:14.899Z,51.53
2019-04-10T06:34:43.374Z,55.78
2019-04-10T06:37:11.849Z,45.12
2019-04-10T06:39:42.049Z,45.50
2019-04-10T06:42:10.578Z,46.20
2019-04-10T06:44:39.140Z,45.05
2019-04-10T06:47:07.723Z,48.52
2019-04-10T06:49:36.602Z,43.13
2019-04-10T06:52:06.069Z,45.78
2019-04-10T06:54:34.639Z,44.98
2019-04-10T06:57:03.114Z,44.27
2019-04-10T06:59:32.442Z,50.03
2019-04-10T07:02:14.706Z,44.33
2019-04-10T07:04:42.849Z,43.55
2019-04-10T07:07:08.816Z,50.52
2019-04-10T07:09:33.717Z,47.48
2019-04-10T07:12:04.199Z,43.87
2019-04-10T07:14:36.219Z,43.90
2019-04-10T07:17:06.754Z,48.15
2019-04-10T07:19:34.434Z,51.20
2019-04-10T07:22:08.668Z,45.10
2019-04-10T07:24:37.000Z,41.48
2019-04-10T07:27:05.285Z,41.83
2019-04-10T07:29:34.610Z,40.10
2019-04-10T07:32:07.862Z,41.75
2019-04-10T07:34:34.106Z,44.58
2019-04-10T07:37:02.653Z,42.23
2019-04-10T07:39:33.518Z,42.48
2019-04-10T07:42:02.091Z,37.33
2019-04-10T07:44:30.559Z,42.93
2019-04-10T07:47:00.692Z,36.25
2019-04-10T07:51:58.683Z,37.55
2019-04-10T07:54:27.388Z,41.83
2019-04-10T07:56:55.917Z,39.27
2019-04-10T07:59:25.046Z,38.92
2019-04-10T08:01:53.774Z,36.45
2019-04-10T08:04:22.988Z,36.42
2019-04-10T08:06:52.305Z,34.77
2019-04-10T08:09:20.956Z,34.30
2019-04-10T08:11:49.381Z,33.55
2019-04-10T08:14:17.666Z,36.10
2019-04-10T08:16:46.238Z,35.78
2019-04-10T08:19:14.969Z,35.00
2019-04-10T08:21:44.313Z,35.60
2019-04-10T08:24:13.527Z,35.65
2019-04-10T08:26:42.978Z,30.37
2019-04-10T08:29:12.097Z,31.93
2019-04-10T08:31:40.469Z,30.92
2019-04-10T08:34:08.919Z,32.78
2019-04-10T08:36:37.503Z,36.80
2019-04-10T08:39:06.910Z,30.15
2019-04-10T08:41:35.468Z,29.57
2019-04-10T08:44:04.417Z,31.90
2019-04-10T08:46:33.647Z,29.50
2019-04-10T08:49:03.497Z,33.00
2019-04-10T08:51:33.161Z,34.13
2019-04-10T08:54:02.636Z,33.95
2019-04-10T08:56:32.227Z,30.23
2019-04-10T08:59:01.093Z,28.75
2019-04-10T09:01:30.110Z,30.82
2019-04-10T09:03:59.426Z,32.48
2019-04-10T09:06:27.855Z,29.48
2019-04-10T09:08:57.170Z,32.30
2019-04-10T09:11:28.410Z,27.60
2019-04-10T09:13:56.915Z,35.03
2019-04-10T09:16:26.652Z,31.90
2019-04-10T09:18:55.767Z,27.80
2019-04-10T09:21:24.473Z,26.57
2019-04-10T09:23:55.715Z,30.88
2019-04-10T09:28:51.126Z,27.30
2019-04-10T09:31:19.932Z,30.60
2019-04-10T09:33:49.557Z,32.42
2019-04-10T09:36:18.371Z,32.48
2019-04-10T09:38:47.929Z,29.20
2019-04-10T09:41:17.380Z,30.65
2019-04-10T09:43:46.086Z,31.77
2019-04-10T09:46:14.494Z,28.20
2019-04-10T09:48:42.851Z,26.85
2019-04-10T09:51:11.775Z,30.48
2019-04-10T09:53:41.266Z,29.50
2019-04-10T09:56:11.522Z,28.80
2019-04-10T09:58:40.560Z,29.00
2019-04-10T10:01:10.450Z,31.20
2019-04-10T10:03:40.004Z,30.62
2019-04-10T10:06:22.027Z,30.82
2019-04-10T10:08:40.135Z,29.30
2019-04-10T10:11:09.602Z,31.02
2019-04-10T10:13:39.312Z,30.70
2019-04-10T10:18:37.390Z,28.60
2019-04-10T10:21:06.079Z,33.45
2019-04-10T10:23:35.995Z,31.25
2019-04-10T10:28:33.226Z,34.53
2019-04-10T10:31:02.279Z,35.40
2019-04-10T10:33:30.735Z,34.80
2019-04-10T10:35:59.859Z,33.67
2019-04-10T10:38:29.440Z,32.90
2019-04-10T10:40:59.027Z,37.93
2019-04-10T10:43:28.695Z,30.68
2019-04-10T10:45:57.257Z,30.60
2019-04-10T10:48:26.015Z,36.33
2019-04-10T10:50:54.642Z,28.47
2019-04-10T10:53:24.054Z,32.95
2019-04-10T10:55:53.870Z,40.73
2019-04-10T11:00:51.648Z,34.48
2019-04-10T11:03:20.422Z,31.93
2019-04-10T11:05:49.175Z,24.92
2019-04-10T11:08:17.913Z,29.65
2019-04-10T11:10:50.710Z,29.15
2019-04-10T11:15:46.125Z,30.80
2019-04-10T11:18:15.774Z,28.50
2019-04-10T11:20:44.280Z,34.60
2019-04-10T11:23:13.354Z,32.73
2019-04-10T11:25:41.865Z,31.17
2019-04-10T11:28:10.151Z,32.70
2019-04-10T11:30:38.767Z,30.82
2019-04-10T11:33:08.529Z,32.98
2019-04-10T11:35:37.404Z,27.58
2019-04-10T11:38:06.024Z,26.40
2019-04-10T11:40:35.024Z,28.38
2019-04-10T11:43:05.119Z,27.37
2019-04-10T11:45:41.321Z,27.55
2019-04-10T11:50:32.745Z,25.88
2019-04-10T11:55:37.988Z,28.27
2019-04-10T11:58:01.394Z,30.97
2019-04-10T12:03:10.225Z,33.23
2019-04-10T12:05:41.132Z,34.48
2019-04-10T12:08:33.626Z,31.55
2019-04-10T12:15:39.033Z,25.77
2019-04-10T12:18:08.567Z,30.37
2019-04-10T12:20:37.486Z,28.90
2019-04-10T12:23:05.904Z,31.02
2019-04-10T12:25:34.681Z,28.95
2019-04-10T12:28:03.346Z,26.57
2019-04-10T12:30:31.813Z,31.73
2019-04-10T12:33:01.091Z,32.90
2019-04-10T12:35:29.786Z,26.93
2019-04-10T12:38:02.851Z,29.40
2019-04-10T12:42:57.197Z,35.38
2019-04-10T12:45:26.417Z,26.57
2019-04-10T12:47:54.963Z,30.85
2019-04-10T12:50:23.325Z,32.35
2019-04-10T12:52:51.747Z,35.78
2019-04-10T12:55:20.565Z,31.25
2019-04-10T12:57:49.194Z,25.92
2019-04-10T13:00:20.033Z,27.62
2019-04-10T13:02:48.667Z,29.50
2019-04-10T13:05:16.990Z,33.02
2019-04-10T13:07:45.616Z,32.10
2019-04-10T13:10:14.937Z,33.83
2019-04-10T13:12:43.410Z,28.80
2019-04-10T13:15:13.081Z,41.13
2019-04-10T13:17:42.751Z,28.87
2019-04-10T13:20:13.508Z,29.45
2019-04-10T13:22:42.356Z,35.30
2019-04-10T13:25:12.306Z,26.95
2019-04-10T13:27:41.185Z,30.88
2019-04-10T13:30:13.060Z,25.02
2019-04-10T13:32:42.432Z,32.10
2019-04-10T13:35:11.162Z,27.55
2019-04-10T13:37:40.024Z,25.12
2019-04-10T13:40:08.391Z,24.43
2019-04-10T13:42:37.302Z,29.23
2019-04-10T13:45:07.307Z,28.07
2019-04-10T13:47:35.861Z,24.25
2019-04-10T13:50:06.423Z,26.05
2019-04-10T13:52:36.528Z,24.85
2019-04-10T13:57:34.762Z,26.97
2019-04-10T14:00:05.717Z,27.07
2019-04-10T14:02:36.016Z,28.80
2019-04-10T14:05:11.344Z,29.45
2019-04-10T14:07:40.296Z,29.50
2019-04-10T14:10:10.623Z,26.87
2019-04-10T14:12:39.553Z,26.70
2019-04-10T14:15:08.129Z,25.55
2019-04-10T14:17:37.621Z,29.98
2019-04-10T14:20:07.002Z,29.65
2019-04-10T14:22:37.949Z,28.52
2019-04-10T14:25:09.468Z,27.85
2019-04-10T14:27:38.556Z,33.42
2019-04-10T14:30:09.709Z,28.00
2019-04-10T14:32:37.990Z,33.35
2019-04-10T14:35:08.221Z,25.43
2019-04-10T14:37:37.915Z,27.80
2019-04-10T14:40:10.070Z,29.45
2019-04-10T14:42:38.575Z,33.23
2019-04-10T14:45:08.894Z,32.73
2019-04-10T14:47:39.181Z,25.65
2019-04-10T14:50:09.421Z,34.90
2019-04-10T14:52:39.490Z,29.63
2019-04-10T14:57:46.119Z,31.40
2019-04-10T15:00:26.542Z,38.95
2019-04-10T15:03:00.060Z,34.95
2019-04-10T15:05:27.941Z,27.30
2019-04-10T15:07:57.488Z,30.27
2019-04-10T15:10:28.458Z,33.13
2019-04-10T15:13:13.144Z,31.15
2019-04-10T15:15:39.192Z,28.75
2019-04-10T15:18:08.846Z,30.20
2019-04-10T15:20:37.893Z,34.43
2019-04-10T15:23:12.334Z,29.32
2019-04-10T15:25:41.605Z,28.67
2019-04-10T15:28:10.457Z,24.65
2019-04-10T15:30:39.140Z,28.73
2019-04-10T15:33:07.517Z,28.85
2019-04-10T15:35:36.068Z,28.23
2019-04-10T15:38:04.466Z,27.17
2019-04-10T15:40:32.804Z,28.07
2019-04-10T15:43:02.993Z,27.37
2019-04-10T15:45:32.492Z,28.42
2019-04-10T15:48:03.119Z,25.82
2019-04-10T15:50:32.591Z,29.27
2019-04-10T15:53:02.121Z,28.27
2019-04-10T15:55:32.041Z,27.65
2019-04-10T16:00:31.269Z,29.20
2019-04-10T16:03:00.670Z,29.20
2019-04-10T16:05:31.441Z,29.57
2019-04-10T16:08:00.779Z,28.20
2019-04-10T16:10:34.280Z,29.32
2019-04-10T16:13:22.536Z,37.28
2019-04-10T16:15:56.434Z,31.95
2019-04-10T16:18:28.914Z,38.13
2019-04-10T16:20:57.303Z,37.53
2019-04-10T16:23:31.287Z,36.65
2019-04-10T16:26:00.878Z,32.30
2019-04-10T16:28:29.734Z,35.85
2019-04-10T16:30:59.269Z,30.00
2019-04-10T16:33:27.922Z,34.40
2019-04-10T16:35:56.934Z,32.30
2019-04-10T16:38:26.716Z,32.73
2019-04-10T16:40:56.377Z,29.12
2019-04-10T16:43:26.344Z,32.45
2019-04-10T16:48:24.801Z,32.80
2019-04-10T16:50:54.039Z,34.67
2019-04-10T16:53:22.432Z,27.80
2019-04-10T16:55:54.535Z,31.12
2019-04-10T16:58:23.459Z,29.87
2019-04-10T17:00:51.972Z,29.23
2019-04-10T17:03:21.729Z,29.67
2019-04-10T17:05:50.247Z,41.02
2019-04-10T17:08:19.605Z,31.70
2019-04-10T17:10:51.012Z,34.23
2019-04-10T17:13:20.686Z,31.65
2019-04-10T17:15:50.320Z,40.08
2019-04-10T17:18:19.369Z,33.75
2019-04-10T17:20:48.801Z,32.20
2019-04-10T17:23:18.517Z,29.57
2019-04-10T17:25:48.710Z,35.85
2019-04-10T17:28:18.421Z,34.60
2019-04-10T17:30:46.907Z,34.60
2019-04-10T17:33:16.453Z,33.23
2019-04-10T17:35:45.612Z,32.58
2019-04-10T17:38:14.317Z,32.47
2019-04-10T17:40:49.918Z,33.18
2019-04-10T17:43:12.932Z,37.70
2019-04-10T17:45:42.665Z,34.10
2019-04-10T17:48:11.695Z,31.60
2019-04-10T17:50:50.377Z,34.08
2019-04-10T17:53:18.869Z,31.57
2019-04-10T17:55:49.553Z,35.25
2019-04-10T17:58:19.087Z,38.58
2019-04-10T18:00:49.543Z,30.65
2019-04-10T18:03:18.939Z,39.92
2019-04-10T18:05:51.505Z,42.48
2019-04-10T18:08:21.196Z,35.08
2019-04-10T18:10:53.011Z,36.60
2019-04-10T18:13:20.616Z,40.90
2019-04-10T18:15:50.451Z,35.90
2019-04-10T18:20:46.695Z,35.63
2019-04-10T18:23:15.509Z,39.83
2019-04-10T18:25:44.458Z,33.78
2019-04-10T18:28:13.723Z,31.55
2019-04-10T18:30:42.094Z,37.00
2019-04-10T18:33:10.542Z,44.33
2019-04-10T18:35:39.031Z,37.73
2019-04-10T18:38:08.948Z,46.80
2019-04-10T18:40:37.426Z,35.50
2019-04-10T18:43:05.833Z,35.33
2019-04-10T18:45:34.211Z,34.55
2019-04-10T18:48:02.806Z,36.68
2019-04-10T18:50:32.128Z,39.98
2019-04-10T18:53:01.572Z,36.10
2019-04-10T18:55:30.173Z,39.15
2019-04-10T18:57:59.154Z,38.45
2019-04-10T19:00:30.173Z,36.13
2019-04-10T19:03:09.599Z,35.73
2019-04-10T19:05:40.284Z,36.45
2019-04-10T19:08:11.219Z,41.02
2019-04-10T19:13:08.231Z,38.23
2019-04-10T19:15:37.160Z,42.00
2019-04-10T19:18:07.585Z,41.48
2019-04-10T19:20:36.104Z,41.45
2019-04-10T19:23:04.523Z,41.42
2019-04-10T19:25:34.731Z,44.65
2019-04-10T19:28:04.454Z,40.60
2019-04-10T19:30:43.880Z,45.25
2019-04-10T19:33:12.295Z,47.23
2019-04-10T19:35:41.381Z,43.15
2019-04-10T19:38:09.883Z,42.37
2019-04-10T19:40:38.752Z,42.88
2019-04-10T19:43:08.288Z,38.08
2019-04-10T19:45:36.828Z,41.45
2019-04-10T19:48:06.790Z,42.08
2019-04-10T19:53:04.750Z,42.50
2019-04-10T19:55:33.363Z,42.33
2019-04-10T19:58:01.817Z,48.28
2019-04-10T20:00:33.300Z,43.08
2019-04-10T20:03:01.646Z,44.75
2019-04-10T20:05:31.552Z,51.58
2019-04-10T20:10:29.605Z,41.95
2019-04-10T20:15:26.731Z,36.73
2019-04-10T20:17:55.315Z,38.20
2019-04-10T20:20:23.680Z,39.98
2019-04-10T20:22:53.482Z,41.75
2019-04-10T20:25:22.081Z,43.05
2019-04-10T20:27:52.057Z,40.25
2019-04-10T20:32:50.221Z,37.70
2019-04-10T20:35:20.214Z,39.45
2019-04-10T20:37:49.182Z,33.38
2019-04-10T20:40:19.136Z,37.70
2019-04-10T20:45:15.977Z,38.70
2019-04-10T20:47:44.295Z,37.93
2019-04-10T20:50:12.679Z,34.92
2019-04-10T20:52:41.081Z,36.15
2019-04-10T20:55:09.601Z,37.88
2019-04-10T20:57:38.060Z,39.23
2019-04-10T21:00:09.472Z,34.73
2019-04-10T21:02:38.794Z,42.08
2019-04-10T21:05:09.767Z,36.73
2019-04-10T21:10:08.545Z,41.33
2019-04-10T21:12:37.007Z,38.45
2019-04-10T21:15:09.071Z,44.13
2019-04-10T21:17:37.943Z,39.40
2019-04-10T21:20:13.146Z,43.35
2019-04-10T21:22:40.669Z,40.83
2019-04-10T21:25:10.298Z,38.67
2019-04-10T21:27:39.661Z,41.10
2019-04-10T21:30:17.790Z,40.25
2019-04-10T21:32:58.304Z,38.63
2019-04-10T21:35:31.231Z,39.30
2019-04-10T21:37:59.764Z,45.55
2019-04-10T21:40:28.668Z,43.98
2019-04-10T21:42:58.083Z,40.25
2019-04-10T21:45:27.038Z,45.17
2019-04-10T21:47:55.602Z,40.85
2019-04-10T21:50:24.743Z,43.45
2019-04-10T21:52:53.169Z,39.78
2019-04-10T21:55:22.460Z,39.18
2019-04-10T21:57:51.828Z,43.45
2019-04-10T22:00:21.865Z,37.67
2019-04-10T22:05:19.834Z,41.68
2019-04-10T22:07:50.317Z,38.17
2019-04-10T22:10:36.299Z,42.35
2019-04-10T22:13:05.889Z,41.60
2019-04-10T22:15:37.203Z,35.10
2019-04-10T22:18:07.319Z,40.10
2019-04-10T22:23:04.828Z,41.02
2019-04-10T22:25:36.067Z,37.42
2019-04-10T22:28:04.565Z,41.70
2019-04-10T22:30:33.392Z,44.50
2019-04-10T22:33:01.649Z,45.73
2019-04-10T22:35:31.323Z,41.53
2019-04-10T22:38:00.364Z,45.70
2019-04-10T22:40:29.111Z,45.03
2019-04-10T22:42:57.783Z,44.77
2019-04-10T22:45:29.223Z,44.20
2019-04-10T22:47:58.600Z,41.42
2019-04-10T22:50:27.636Z,40.23
2019-04-10T22:52:57.706Z,38.45
2019-04-10T22:55:26.673Z,40.67
2019-04-10T22:57:55.332Z,36.70
2019-04-10T23:00:33.483Z,39.48
2019-04-10T23:03:03.204Z,39.88
2019-04-10T23:08:01.275Z,37.98
2019-04-10T23:10:29.857Z,36.50
2019-04-10T23:13:02.870Z,34.00
2019-04-10T23:15:28.492Z,35.17
2019-04-10T23:17:57.261Z,37.83
2019-04-10T23:20:26.283Z,32.10
2019-04-10T23:22:55.009Z,37.25
2019-04-10T23:25:29.848Z,48.45
2019-04-10T23:27:58.904Z,38.20
2019-04-10T23:30:28.743Z,35.47
2019-04-10T23:32:57.573Z,34.23
2019-04-10T23:35:26.144Z,40.17
2019-04-10T23:37:55.211Z,36.25
2019-04-10T23:40:23.629Z,33.98
2019-04-10T23:43:02.657Z,34.45
2019-04-10T23:45:22.490Z,39.73
2019-04-10T23:47:51.137Z,40.52
2019-04-10T23:50:19.516Z,37.17
2019-04-10T23:52:47.986Z,36.63
2019-04-10T23:55:17.645Z,38.80
2019-04-10T23:57:46.671Z,42.00
